Flight Track Log - Related Links

Times and Time Zones

All times are in EDT time to prevent confusion due to time zone crossing. See the EJA831 flight status page for this flight to view local times or setup timezone preferences in your user account.


Time Position Orientation Groundspeed Altitude Reporting Facility
EDT Latitude Longitude Course Direction KTS MPH feet Rate Location/Type
Sun 05:06:30 PM 38.8833 -90.4167 349° North 275 316 8,400  Level Gateway (St. Louis) TRACON
Sun 05:07:18 PM 38.9333 -90.4000 15° North 308 354 11,400 3,455 Climbing Gateway (St. Louis) TRACON
Sun 05:07:36 PM 38.9456 -90.3700 62° Northeast 288 331 12,200 2,049 Climbing Kansas City Center
Sun 05:08:40 PM 38.9358 -90.2617 97° East 307 353 14,200 1,296 Climbing Kansas City Center
Sun 05:09:41 PM 38.9106 -90.1450 106° East 323 372 14,900 492 Climbing Kansas City Center
Sun 05:10:00 PM 38.9805 -89.9518 54° Northeast  Level Estimated
Sun 05:10:42 PM 38.8842 -90.0214 105° East 342 394 15,200  Level Kansas City Center
Sun 05:11:46 PM 38.8589 -89.8947 104° East 359 413 16,800 1,742 Climbing Kansas City Center
Sun 05:12:46 PM 38.8325 -89.7711 105° East 361 415 18,800 2,419 Climbing Kansas City Center
Sun 05:13:50 PM 38.8036 -89.6328 105° East 349 402 21,800 2,448 Climbing Kansas City Center
Sun 05:14:51 PM 38.7942 -89.4947 95° East 379 436 23,900 2,016 Climbing Kansas City Center
Sun 05:15:52 PM 38.8117 -89.3583 81° East 389 448 25,900 1,776 Climbing Kansas City Center
Sun 05:16:56 PM 38.8300 -89.2086 81° East 394 453 27,600 1,296 Climbing Kansas City Center
Sun 05:17:57 PM 38.8481 -89.0672 81° East 399 459 28,600 738 Climbing Kansas City Center
Sun 05:18:58 PM 38.8792 -88.9481 71° East 411 473 29,100 524 Climbing Kansas City Center
Sun 05:20:03 PM 38.9661 -88.8003 53° Northeast 430 495 29,700 576 Climbing Kansas City Center
Sun 05:21:03 PM 39.0414 -88.6761 52° Northeast 438 504 30,300 645 Climbing Kansas City Center
Sun 05:22:04 PM 39.1136 -88.5536 53° Northeast 438 504 31,000 683 Climbing Kansas City Center
Sun 05:23:06 PM 39.1875 -88.4264 53° Northeast 440 506 31,700 810 Climbing Kansas City Center
Sun 05:24:10 PM 39.2606 -88.2997 53° Northeast 438 504 32,700 624 Climbing Kansas City Center
Sun 05:25:11 PM 39.3381 -88.1653 53° Northeast 444 511 33,000 180 Climbing Kansas City Center
Sun 05:25:50 PM 39.3978 -88.0611 53° Northeast 489 563 33,000  Level Indianapolis Center
Sun 05:26:52 PM 39.4972 -87.8881 53° Northeast 501 577 33,000  Level Indianapolis Center
Sun 05:27:54 PM 39.5783 -87.7447 54° Northeast 498 573 33,000  Level Indianapolis Center
Sun 05:28:56 PM 39.6603 -87.6028 53° Northeast 492 566 33,000  Level Indianapolis Center
Sun 05:29:57 PM 39.7492 -87.4658 50° Northeast 500 575 33,000  Level Indianapolis Center
Sun 05:30:59 PM 39.8614 -87.3611 36° Northeast 497 572 33,000  Level Indianapolis Center
Sun 05:32:01 PM 39.9739 -87.2547 36° Northeast 498 573 33,000  Level Indianapolis Center
Sun 05:33:03 PM 40.0861 -87.1475 36° Northeast 498 573 33,000  Level Indianapolis Center
Sun 05:34:02 PM 40.1669 -87.0022 54° Northeast 496 571 33,000  Level Chicago Center
Sun 05:35:04 PM 40.2372 -86.8492 59° Northeast 491 565 33,000  Level Chicago Center
Sun 05:36:06 PM 40.3214 -86.6653 59° Northeast 489 563 33,000  Level Chicago Center
Sun 05:37:08 PM 40.3914 -86.5117 59° Northeast 489 563 33,000  Level Chicago Center
Sun 05:38:10 PM 40.4611 -86.3594 59° Northeast 486 559 33,000  Level Chicago Center
Sun 05:39:12 PM 40.5297 -86.2075 59° Northeast 484 557 33,000 -871 Level Chicago Center
Sun 05:40:14 PM 40.5978 -86.0569 59° Northeast 481 554 31,200 -1,839 Descending Chicago Center
Sun 05:41:16 PM 40.6639 -85.9064 60° Northeast 476 548 29,200 -2,016 Descending Chicago Center
Sun 05:42:19 PM 40.7406 -85.7325 60° Northeast 480 552 27,000 -1,920 Descending Chicago Center
Sun 05:43:21 PM 40.8069 -85.5833 60° Northeast 477 549 25,200 -1,742 Descending Chicago Center
Sun 05:44:23 PM 40.8706 -85.4369 60° Northeast 465 535 23,400 -1,597 Descending Chicago Center
Sun 05:45:25 PM 40.9289 -85.3014 60° Northeast 436 502 21,900 -1,597 Descending Chicago Center
Sun 05:46:27 PM 40.9947 -85.1389 62° Northeast 423 487 20,100 -1,597 Descending Chicago Center
Sun 05:47:29 PM 41.0347 -85.0069 68° East 398 458 18,600 -1,452 Descending Chicago Center
Sun 05:48:31 PM 41.0769 -84.8728 67° East 397 457 17,100 -774 Descending Chicago Center
Sun 05:49:33 PM 41.1189 -84.7400 67° East 393 452 17,000 -48 Descending Chicago Center
Sun 05:50:35 PM 41.1597 -84.6067 68° East 393 452 17,000 -726 Level Chicago Center
Sun 05:51:37 PM 41.2086 -84.4456 68° East 396 456 15,500 -1,452 Descending Chicago Center
Sun 05:52:39 PM 41.2497 -84.3136 67° East 390 449 14,000 -1,440 Descending Chicago Center
Sun 05:53:42 PM 41.2883 -84.1836 68° East 382 440 12,500 -1,440 Descending Chicago Center
Sun 05:54:44 PM 41.3278 -84.0594 67° East 375 432 11,000 -1,258 Descending Chicago Center
Sun 05:55:46 PM 41.3644 -83.9394 68° East 365 420 9,900 -484 Descending Chicago Center
Sun 05:56:48 PM 41.4003 -83.8150 69° East 322 371 10,000 47 Climbing Chicago Center
Sun 05:57:55 PM 41.4364 -83.6881 69° East 324 373 10,000  Level Cleveland Center
Sun 05:58:55 PM 41.4769 -83.5708 65° Northeast 329 379 10,000  Level Cleveland Center
Sun 05:59:55 PM 41.5214 -83.4592 62° Northeast 329 379 10,000 -50 Level Cleveland Center
Sun 06:00:55 PM 41.5636 -83.3528 62° Northeast 341 392 9,900 79 Descending Cleveland Center
Sun 06:01:11 PM 41.5792 -83.3175 59° Northeast 349 402 10,100 100 Climbing Cleveland Center
Sun 06:01:55 PM 41.6081 -83.2408 63° Northeast 341 392 10,000 -196 Descending Cleveland Center
Sun 06:02:43 PM 41.6478 -83.1508 59° Northeast 295 339 9,800 -1,794 Descending Cleveland Center
Sun 06:03:32 PM 41.6786 -83.0686 63° Northeast 292 336 7,100 -2,431 Descending Cleveland Center
Sun 06:04:39 PM 41.7244 -82.9758 56° Northeast 274 315 5,100 -938 Descending Cleveland Center
Sun 06:05:40 PM 41.8100 -82.9706 North 292 336 5,100 -49 Level Cleveland Center
Sun 06:06:41 PM 41.8933 -82.9794 355° North 290 334 5,000 -49 Descending Cleveland Center
Sun 06:07:43 PM 41.9725 -82.9822 359° North 289 333 5,000 -244 Level Cleveland Center
Sun 06:08:44 PM 42.0536 -82.9908 355° North 290 334 4,500 -492 Descending Cleveland Center
Sun 06:09:45 PM 42.1389 -82.9942 358° North 284 327 4,000 -246 Descending Cleveland Center
Sun 06:10:46 PM 42.2158 -83.0028 355° North 284 327 4,000 -422 Level Cleveland Center
Sun 06:11:53 PM 42.3056 -83.0033 360° North 274 315 3,100 -698 Descending Cleveland Center
Sun 06:12:55 PM 42.3647 -83.0617 324° Northwest 240 276 2,500 -439 Descending Cleveland Center
Sun 06:13:56 PM 42.4139 -83.1003 330° Northwest 204 235 2,200 -492 Descending Cleveland Center
Sun 06:14:57 PM 42.4378 -83.0533 55° Northeast 142 163 1,500 -689 Descending Cleveland Center

Login

Don't have an account? Register now (free) for customized features, flight alerts, and more!